Time;durP1;ratioP1;P1;durP2;ratioP2;P2;SDS_P1;SDS_P2;PMS_P1;PMS_P2;Temp;Humidity;BMP_temperature;BMP_pressure;BME280_temperature;BME280_humidity;BME280_pressure;Samples;Min_cycle;Max_cycle;Signal;HPM_P1;HPM_P2
2022/05/02 00:02:24;;;;;;;6.97;3.28;;;7.60;99.90;;;;;;4957300;28;20050;-52
2022/05/02 00:04:50;;;;;;;4.72;2.90;;;7.50;99.90;;;;;;4973986;28;20054;-53
2022/05/02 00:07:16;;;;;;;5.00;3.03;;;7.50;99.90;;;;;;4974091;28;20034;-50
2022/05/02 00:09:42;;;;;;;4.93;3.17;;;7.50;99.90;;;;;;4956843;28;20097;-52
2022/05/02 00:12:08;;;;;;;6.43;3.80;;;7.50;99.90;;;;;;4974090;28;20039;-52
2022/05/02 00:14:34;;;;;;;7.03;3.40;;;7.50;99.90;;;;;;4973938;28;20142;-51
2022/05/02 00:17:00;;;;;;;6.30;3.65;;;7.40;99.90;;;;;;4973852;28;20202;-52
2022/05/02 00:19:26;;;;;;;6.68;3.47;;;7.40;99.90;;;;;;4974032;28;20034;-52
2022/05/02 00:21:51;;;;;;;4.45;3.08;;;7.40;99.90;;;;;;4973768;28;20082;-49
2022/05/02 00:24:17;;;;;;;6.82;3.75;;;7.40;99.90;;;;;;4972605;28;20074;-47
2022/05/02 00:26:43;;;;;;;6.97;3.47;;;7.40;99.90;;;;;;4956306;28;20606;-51
2022/05/02 00:29:08;;;;;;;5.00;3.28;;;7.50;99.90;;;;;;4973718;28;20616;-49
2022/05/02 00:31:34;;;;;;;7.03;3.63;;;7.50;99.90;;;;;;4973520;28;20077;-49
2022/05/02 00:34:00;;;;;;;5.95;3.75;;;7.60;99.90;;;;;;4973632;28;20043;-51
2022/05/02 00:36:26;;;;;;;6.13;2.85;;;7.60;99.90;;;;;;4973274;28;20050;-52
2022/05/02 00:38:52;;;;;;;7.40;3.20;;;7.60;99.90;;;;;;4973447;28;20046;-50
2022/05/02 00:41:19;;;;;;;4.97;2.80;;;7.60;99.90;;;;;;4973391;28;20039;-52
2022/05/02 00:43:45;;;;;;;5.50;3.30;;;7.70;99.90;;;;;;4973165;28;20149;-51
2022/05/02 00:46:18;;;;;;;5.35;3.10;;;7.70;99.90;;;;;;4973044;28;20074;-50
2022/05/02 00:48:44;;;;;;;5.53;3.35;;;7.70;99.90;;;;;;4973082;28;20074;-51
2022/05/02 00:51:10;;;;;;;5.68;3.13;;;7.70;99.90;;;;;;4973298;28;20140;-51
2022/05/02 00:53:36;;;;;;;5.35;3.35;;;7.70;99.90;;;;;;4973283;28;20034;-52
2022/05/02 00:56:02;;;;;;;6.65;3.50;;;7.70;99.90;;;;;;4972873;28;20082;-52
2022/05/02 00:58:28;;;;;;;8.18;3.67;;;7.60;99.90;;;;;;4973283;28;20454;-50
2022/05/02 01:00:54;;;;;;;6.78;3.50;;;7.60;99.90;;;;;;4972532;28;20125;-51
2022/05/02 01:03:20;;;;;;;7.18;3.85;;;7.60;99.90;;;;;;4973150;28;20505;-52
2022/05/02 01:08:33;;;;;;;5.32;3.08;;;7.50;99.90;;;;;;4972968;28;20045;-51
2022/05/02 01:10:59;;;;;;;5.50;3.20;;;7.50;99.90;;;;;;4972658;28;20412;-48
2022/05/02 01:13:31;;;;;;;5.72;3.38;;;7.40;99.90;;;;;;4973347;28;20053;-49
2022/05/02 01:15:57;;;;;;;5.97;3.58;;;7.40;99.90;;;;;;4973109;28;20046;-52
2022/05/02 01:18:22;;;;;;;5.57;2.85;;;7.40;99.90;;;;;;4973177;28;20045;-52
2022/05/02 01:20:48;;;;;;;7.03;3.80;;;7.30;99.90;;;;;;4972918;28;20391;-52
2022/05/02 01:23:13;;;;;;;6.60;3.25;;;7.30;99.90;;;;;;4955530;28;20043;-52
2022/05/02 01:25:39;;;;;;;5.45;3.00;;;7.20;99.90;;;;;;4972490;28;20034;-45
2022/05/02 01:28:06;;;;;;;5.72;3.50;;;7.20;99.90;;;;;;4972729;28;20480;-51
2022/05/02 01:30:32;;;;;;;5.75;4.07;;;7.10;99.90;;;;;;4972558;28;20420;-47
2022/05/02 01:32:58;;;;;;;8.77;3.78;;;7.10;99.90;;;;;;4972637;28;20046;-52
2022/05/02 01:35:23;;;;;;;7.82;3.75;;;7.10;99.90;;;;;;4948951;28;20039;-49
2022/05/02 01:37:49;;;;;;;5.25;2.88;;;7.00;99.90;;;;;;4965720;28;20185;-49
2022/05/02 01:40:15;;;;;;;5.00;3.40;;;7.00;99.90;;;;;;4964956;28;20045;-51
2022/05/02 01:42:40;;;;;;;4.85;3.40;;;6.90;99.90;;;;;;4952492;28;20346;-46
2022/05/02 01:45:06;;;;;;;5.93;3.63;;;6.90;99.90;;;;;;4966002;28;20061;-52
2022/05/02 01:47:32;;;;;;;7.07;3.75;;;6.80;99.90;;;;;;4967055;28;20027;-44
2022/05/02 01:49:58;;;;;;;5.25;3.40;;;6.80;99.90;;;;;;4964686;28;20110;-45
2022/05/02 01:52:23;;;;;;;6.20;3.60;;;6.80;99.90;;;;;;4949781;28;20039;-51
2022/05/02 01:54:49;;;;;;;6.38;4.13;;;6.70;99.90;;;;;;4967609;28;20054;-45
2022/05/02 01:57:15;;;;;;;7.93;3.97;;;6.70;99.90;;;;;;4965932;28;21878;-49
2022/05/02 01:59:40;;;;;;;6.45;4.15;;;6.60;99.90;;;;;;4966996;28;20058;-45
2022/05/02 02:02:06;;;;;;;6.57;3.47;;;6.60;99.90;;;;;;4963761;28;20040;-46
2022/05/02 02:07:16;;;;;;;7.88;4.43;;;6.50;99.90;;;;;;4968627;28;20471;-47
2022/05/02 02:09:41;;;;;;;7.32;4.50;;;6.50;99.90;;;;;;4963353;28;20470;-45
2022/05/02 02:12:07;;;;;;;6.95;4.00;;;6.50;99.90;;;;;;4950645;28;20074;-48
2022/05/02 02:14:33;;;;;;;7.50;4.18;;;6.50;99.90;;;;;;4965063;28;20046;-47
2022/05/02 02:16:59;;;;;;;5.93;3.97;;;6.40;99.90;;;;;;4964310;28;20046;-49
2022/05/02 02:19:24;;;;;;;5.68;3.80;;;6.40;99.90;;;;;;4968446;28;20031;-45
2022/05/02 02:21:50;;;;;;;7.70;4.57;;;6.40;99.90;;;;;;4969296;28;20114;-52
2022/05/02 02:24:16;;;;;;;8.63;3.72;;;6.30;99.90;;;;;;4966160;28;20452;-51
2022/05/02 02:26:41;;;;;;;7.88;4.68;;;6.30;99.90;;;;;;4968014;28;20045;-51
2022/05/02 02:29:07;;;;;;;6.13;3.72;;;6.30;99.90;;;;;;4971386;28;20155;-52
2022/05/02 02:31:33;;;;;;;6.97;4.47;;;6.20;99.90;;;;;;4955042;28;20073;-52
2022/05/02 02:33:58;;;;;;;6.25;3.60;;;6.20;99.90;;;;;;4959799;28;20104;-47
2022/05/02 02:36:24;;;;;;;6.75;4.15;;;6.10;99.90;;;;;;4949416;28;20046;-50
2022/05/02 02:38:50;;;;;;;8.73;4.60;;;6.10;99.90;;;;;;4953921;28;20050;-47
2022/05/02 02:41:15;;;;;;;8.23;4.95;;;6.10;99.90;;;;;;4969359;28;20441;-52
2022/05/02 02:43:41;;;;;;;7.63;4.38;;;6.10;99.90;;;;;;4969940;28;20527;-45
2022/05/02 02:46:06;;;;;;;8.25;4.15;;;6.10;99.90;;;;;;4970345;28;20092;-50
2022/05/02 02:48:32;;;;;;;7.45;3.95;;;6.10;99.90;;;;;;4968120;28;20031;-52
2022/05/02 02:51:00;;;;;;;6.03;3.95;;;6.00;99.90;;;;;;4965907;28;20495;-50
2022/05/02 02:53:26;;;;;;;6.45;4.05;;;6.00;99.90;;;;;;4969513;28;20070;-52
2022/05/02 02:55:52;;;;;;;7.03;5.07;;;6.00;99.90;;;;;;4973387;28;21073;-51
2022/05/02 02:58:17;;;;;;;7.35;4.70;;;6.00;99.90;;;;;;4968667;28;20460;-50
2022/05/02 03:00:43;;;;;;;7.90;5.18;;;6.00;99.90;;;;;;4968268;28;20453;-52
2022/05/02 03:03:08;;;;;;;7.60;4.65;;;5.90;99.90;;;;;;4968634;28;20142;-53
2022/05/02 03:08:18;;;;;;;8.68;5.35;;;5.90;99.90;;;;;;4968144;28;20042;-49
2022/05/02 03:10:44;;;;;;;6.72;4.50;;;5.90;99.90;;;;;;4969604;28;20037;-51
2022/05/02 03:13:10;;;;;;;9.60;5.38;;;5.90;99.90;;;;;;4969186;28;20178;-45
2022/05/02 03:15:36;;;;;;;8.68;5.25;;;5.90;99.90;;;;;;4966736;28;20477;-52
2022/05/02 03:18:02;;;;;;;7.80;4.57;;;5.90;99.90;;;;;;4970564;28;20050;-51
2022/05/02 03:20:28;;;;;;;12.15;5.63;;;5.80;99.90;;;;;;4962828;28;20035;-52
2022/05/02 03:22:53;;;;;;;9.32;4.95;;;5.80;99.90;;;;;;4948098;28;20109;-48
2022/05/02 03:25:19;;;;;;;8.88;5.60;;;5.80;99.90;;;;;;4951722;28;20101;-48
2022/05/02 03:27:45;;;;;;;11.07;5.05;;;5.80;99.90;;;;;;4968371;28;20144;-45
2022/05/02 03:30:11;;;;;;;7.07;4.75;;;5.70;99.90;;;;;;4965316;28;20437;-50
2022/05/02 03:32:36;;;;;;;8.43;5.32;;;5.70;99.90;;;;;;4968544;28;20478;-47
2022/05/02 03:35:02;;;;;;;7.28;4.78;;;5.70;99.90;;;;;;4969449;28;20052;-46
2022/05/02 03:37:28;;;;;;;9.02;5.55;;;5.60;99.90;;;;;;4968938;28;20053;-49
2022/05/02 03:39:54;;;;;;;8.50;5.43;;;5.60;99.90;;;;;;4968465;28;20047;-52
2022/05/02 03:42:19;;;;;;;9.55;5.80;;;5.60;99.90;;;;;;4969535;28;20126;-51
2022/05/02 03:44:45;;;;;;;8.82;5.75;;;5.60;99.90;;;;;;4967197;28;20039;-47
2022/05/02 03:47:10;;;;;;;9.90;5.82;;;5.60;99.90;;;;;;4968373;28;20089;-44
2022/05/02 03:49:36;;;;;;;10.82;5.75;;;5.60;99.90;;;;;;4967781;28;20035;-52
2022/05/02 03:52:02;;;;;;;8.20;5.32;;;5.60;99.90;;;;;;4943970;28;20400;-52
2022/05/02 03:54:28;;;;;;;9.05;5.93;;;5.60;99.90;;;;;;4948698;28;20500;-46
2022/05/02 03:56:53;;;;;;;9.35;6.03;;;5.50;99.90;;;;;;4950888;28;20050;-51
2022/05/02 03:59:19;;;;;;;8.75;5.25;;;5.50;99.90;;;;;;4966870;28;20046;-50
2022/05/02 04:01:45;;;;;;;11.40;6.22;;;5.50;99.90;;;;;;4953128;28;20082;-50
2022/05/02 04:04:11;;;;;;;8.95;5.95;;;5.50;99.90;;;;;;4971383;28;20066;-52
2022/05/02 04:06:37;;;;;;;10.40;6.22;;;5.50;99.90;;;;;;4972763;28;20035;-51
2022/05/02 04:09:03;;;;;;;9.00;5.65;;;5.50;99.90;;;;;;4969842;28;20043;-51
2022/05/02 04:11:29;;;;;;;7.78;5.82;;;5.40;99.90;;;;;;4971268;28;20039;-46
2022/05/02 04:13:55;;;;;;;8.10;5.65;;;5.40;99.90;;;;;;4971840;28;20043;-45
2022/05/02 04:16:20;;;;;;;8.77;5.32;;;5.40;99.90;;;;;;4955980;28;20133;-49
2022/05/02 04:18:46;;;;;;;8.30;5.63;;;5.40;99.90;;;;;;4971650;28;20070;-52
2022/05/02 04:21:12;;;;;;;12.77;6.15;;;5.40;99.90;;;;;;4970889;28;20051;-51
2022/05/02 04:23:37;;;;;;;9.85;6.03;;;5.40;99.90;;;;;;4953492;28;20221;-52
2022/05/02 04:26:03;;;;;;;11.82;6.15;;;5.40;99.90;;;;;;4971873;28;20042;-52
2022/05/02 04:28:30;;;;;;;8.98;5.65;;;5.40;99.90;;;;;;4954494;28;20042;-52
2022/05/02 04:30:57;;;;;;;10.68;6.40;;;5.40;99.90;;;;;;4967749;28;20054;-47
2022/05/02 04:33:23;;;;;;;10.00;6.10;;;5.40;99.90;;;;;;4969306;28;20047;-52
2022/05/02 04:35:49;;;;;;;10.57;6.47;;;5.50;99.90;;;;;;4971157;28;20078;-51
2022/05/02 04:38:15;;;;;;;9.38;5.53;;;5.50;99.90;;;;;;4964609;28;20074;-50
2022/05/02 04:40:40;;;;;;;9.73;6.03;;;5.50;99.90;;;;;;4970911;28;20567;-49
2022/05/02 04:43:06;;;;;;;8.65;5.13;;;5.50;99.90;;;;;;4953537;28;20051;-51
2022/05/02 04:45:32;;;;;;;7.78;4.88;;;5.60;99.90;;;;;;4970160;28;20030;-52
2022/05/02 04:47:58;;;;;;;10.95;6.45;;;5.60;99.90;;;;;;4951643;28;20168;-52
2022/05/02 04:50:24;;;;;;;8.88;5.13;;;5.60;99.90;;;;;;4971638;28;20043;-52
2022/05/02 04:52:49;;;;;;;13.85;6.60;;;5.60;99.90;;;;;;4971974;28;20544;-51
2022/05/02 04:55:15;;;;;;;8.55;5.63;;;5.60;99.90;;;;;;4966525;28;20039;-52
2022/05/02 04:57:40;;;;;;;9.55;6.43;;;5.70;99.90;;;;;;4969645;28;20444;-48
2022/05/02 05:00:06;;;;;;;11.30;6.60;;;5.70;99.90;;;;;;4968427;28;20041;-52
2022/05/02 05:02:33;;;;;;;9.70;6.18;;;5.70;99.90;;;;;;4953373;28;20043;-52
2022/05/02 05:04:59;;;;;;;9.15;6.40;;;5.80;99.90;;;;;;4969088;28;20046;-52
2022/05/02 05:07:24;;;;;;;10.65;6.07;;;5.80;99.90;;;;;;4953606;28;20038;-44
2022/05/02 05:09:50;;;;;;;11.32;7.13;;;5.80;99.90;;;;;;4970480;28;20497;-51
2022/05/02 05:12:58;;;;;;;11.57;7.22;;;5.90;99.90;;;;;;4970191;28;20117;-43
2022/05/02 05:18:49;;;;;;;8.93;5.97;;;6.00;99.90;;;;;;4971176;28;20120;-49
2022/05/02 05:21:40;;;;;;;13.15;7.53;;;6.00;99.90;;;;;;4970544;28;21247;-51
2022/05/02 05:24:24;;;;;;;11.35;6.97;;;6.10;99.90;;;;;;4967840;28;20047;-52
2022/05/02 05:27:21;;;;;;;10.73;7.00;;;6.20;99.90;;;;;;4952197;28;20129;-51
2022/05/02 05:30:04;;;;;;;11.00;6.53;;;6.30;99.90;;;;;;4945202;28;20051;-45
2022/05/02 05:32:48;;;;;;;9.75;6.82;;;6.40;99.90;;;;;;4973918;28;20527;-51
2022/05/02 05:35:44;;;;;;;15.90;7.95;;;6.40;99.90;;;;;;4969434;28;20400;-48
2022/05/02 05:38:26;;;;;;;11.77;7.35;;;6.50;99.90;;;;;;4959928;28;20074;-47
2022/05/02 05:41:15;;;;;;;11.48;6.82;;;6.60;99.90;;;;;;4969811;28;20353;-51
2022/05/02 05:44:10;;;;;;;11.93;7.18;;;6.70;99.90;;;;;;4974246;28;20058;-50
2022/05/02 05:46:58;;;;;;;12.38;8.88;;;6.80;99.90;;;;;;4970727;28;20464;-51
2022/05/02 05:49:42;;;;;;;13.05;7.25;;;6.90;99.90;;;;;;4973035;28;20070;-49
2022/05/02 05:52:31;;;;;;;10.82;6.75;;;7.00;99.90;;;;;;4961325;28;20049;-51
2022/05/02 05:55:00;;;;;;;12.63;7.40;;;7.10;99.90;;;;;;4936992;28;20523;-52
2022/05/02 05:57:58;;;;;;;11.55;7.55;;;7.10;99.90;;;;;;4956855;28;20082;-52
2022/05/02 06:00:29;;;;;;;12.38;6.57;;;7.20;99.90;;;;;;4969576;28;20064;-51
2022/05/02 06:03:27;;;;;;;9.32;6.15;;;7.30;99.90;;;;;;4974299;28;20057;-52
2022/05/02 06:05:53;;;;;;;10.15;6.00;;;7.40;99.90;;;;;;4964468;28;20043;-52
2022/05/02 06:08:21;;;;;;;11.32;6.05;;;7.40;99.90;;;;;;4973190;28;20396;-52
2022/05/02 06:10:50;;;;;;;9.63;6.68;;;7.50;99.90;;;;;;4977442;28;20050;-51
2022/05/02 06:13:18;;;;;;;13.02;7.28;;;7.60;99.90;;;;;;4974069;28;20583;-51
2022/05/02 06:18:35;;;;;;;9.98;5.80;;;7.70;99.90;;;;;;4968961;28;20190;-49
2022/05/02 06:21:05;;;;;;;11.15;6.75;;;7.80;99.90;;;;;;4957925;28;20034;-52
2022/05/02 06:23:45;;;;;;;10.27;5.95;;;7.90;99.90;;;;;;4970931;28;20045;-46
2022/05/02 06:26:11;;;;;;;10.10;6.32;;;8.00;99.90;;;;;;4972357;28;20039;-49
2022/05/02 06:28:44;;;;;;;8.48;5.85;;;8.00;99.90;;;;;;4968619;28;20030;-49
2022/05/02 06:31:22;;;;;;;10.48;6.13;;;8.10;99.90;;;;;;4972040;28;20058;-50
2022/05/02 06:33:49;;;;;;;12.43;6.50;;;8.20;99.90;;;;;;4965466;28;20046;-52
2022/05/02 06:36:56;;;;;;;11.90;6.30;;;8.30;99.90;;;;;;4969060;28;20141;-51
2022/05/02 06:39:43;;;;;;;9.40;6.43;;;8.40;99.90;;;;;;4931390;28;20058;-50
2022/05/02 06:42:35;;;;;;;11.90;6.50;;;8.40;99.90;;;;;;4967610;28;20500;-51
2022/05/02 06:45:16;;;;;;;10.20;6.28;;;8.50;99.90;;;;;;4948092;28;20046;-51
2022/05/02 06:48:09;;;;;;;12.95;6.63;;;8.60;99.90;;;;;;4967042;28;20049;-46
2022/05/02 06:50:38;;;;;;;8.95;6.20;;;8.70;99.90;;;;;;4967498;28;20088;-48
2022/05/02 06:53:22;;;;;;;10.85;7.05;;;8.80;99.90;;;;;;4969875;28;20101;-51
2022/05/02 06:56:18;;;;;;;9.40;6.28;;;8.80;99.90;;;;;;4963797;28;20573;-52
2022/05/02 06:59:05;;;;;;;10.27;7.05;;;8.90;99.90;;;;;;4962305;28;20134;-52
2022/05/02 07:02:01;;;;;;;9.75;6.05;;;9.00;99.90;;;;;;4968396;28;20039;-52
2022/05/02 07:04:38;;;;;;;9.18;6.47;;;9.10;99.90;;;;;;4951787;28;20070;-44
2022/05/02 07:07:33;;;;;;;9.10;6.00;;;9.10;99.90;;;;;;4969707;28;20035;-51
2022/05/02 07:10:08;;;;;;;8.45;6.07;;;9.20;99.90;;;;;;4966875;28;20089;-52
2022/05/02 07:12:58;;;;;;;10.35;6.70;;;9.30;99.90;;;;;;4970435;28;20448;-51
2022/05/02 07:15:49;;;;;;;9.25;6.28;;;9.50;99.90;;;;;;4967810;28;20448;-50
2022/05/02 07:18:37;;;;;;;10.43;6.70;;;9.60;99.90;;;;;;4969802;28;20070;-52
2022/05/02 07:21:39;;;;;;;11.65;6.45;;;9.70;99.90;;;;;;4967571;28;20038;-51
2022/05/02 07:24:10;;;;;;;9.10;6.00;;;9.80;99.90;;;;;;4969928;28;20121;-49
2022/05/02 07:26:37;;;;;;;9.63;5.88;;;9.90;99.90;;;;;;4970123;28;20555;-50
2022/05/02 07:29:04;;;;;;;10.10;6.55;;;10.00;99.90;;;;;;4967264;28;20073;-48
2022/05/02 07:31:32;;;;;;;9.88;6.65;;;10.10;99.90;;;;;;4969030;28;20062;-50
2022/05/02 07:33:58;;;;;;;9.30;6.38;;;10.20;99.90;;;;;;4968178;28;20074;-51
2022/05/02 07:36:25;;;;;;;11.10;6.55;;;10.30;99.90;;;;;;4970774;28;20113;-50
2022/05/02 07:38:56;;;;;;;10.93;6.78;;;10.40;99.90;;;;;;4954509;28;20043;-52
2022/05/02 07:41:26;;;;;;;11.25;6.90;;;10.50;99.90;;;;;;4973201;28;20070;-48
2022/05/02 07:44:10;;;;;;;10.20;6.72;;;10.70;99.90;;;;;;4973212;28;20047;-49
2022/05/02 07:46:41;;;;;;;8.90;6.18;;;10.80;99.90;;;;;;4971743;28;20479;-48
2022/05/02 07:49:09;;;;;;;9.73;6.07;;;10.90;99.90;;;;;;4969596;28;20098;-51
2022/05/02 07:51:43;;;;;;;10.65;6.15;;;11.00;99.90;;;;;;4971778;28;20118;-51
2022/05/02 07:54:16;;;;;;;9.13;5.57;;;11.10;99.90;;;;;;4971418;28;20142;-53
2022/05/02 07:56:42;;;;;;;;;;;11.20;99.90;;;;;;4973999;28;20042;-52
2022/05/02 07:59:08;;;;;;;10.85;5.28;;;11.30;98.70;;;;;;4970631;28;19929;-51
2022/05/02 08:01:34;;;;;;;10.10;7.05;;;11.50;99.60;;;;;;4969857;28;20491;-52
2022/05/02 08:04:00;;;;;;;9.68;6.00;;;11.60;99.10;;;;;;4970742;28;20069;-51
2022/05/02 08:06:48;;;;;;;11.15;6.25;;;11.70;98.60;;;;;;4968697;28;20070;-51
2022/05/02 08:09:43;;;;;;;9.63;6.18;;;11.90;97.80;;;;;;4955425;28;20488;-50
2022/05/02 08:12:16;;;;;;;15.15;6.72;;;12.00;97.40;;;;;;4974231;28;20050;-52
2022/05/02 08:15:01;;;;;;;11.77;6.28;;;12.20;96.40;;;;;;4970099;28;20556;-49
2022/05/02 08:17:57;;;;;;;9.60;6.68;;;12.20;94.90;;;;;;4971071;28;20057;-51
2022/05/02 08:20:32;;;;;;;8.25;6.00;;;12.40;94.70;;;;;;4965935;28;20042;-50
2022/05/02 08:29:45;;;;;;;10.38;5.85;;;12.70;93.30;;;;;;4972602;28;20533;-51
2022/05/02 08:32:31;;;;;;;6.68;5.05;;;12.80;92.90;;;;;;4971114;28;20109;-52
2022/05/02 08:35:36;;;;;;;10.18;6.03;;;13.00;92.80;;;;;;4969385;28;20046;-56
2022/05/02 08:38:16;;;;;;;9.63;5.57;;;13.20;91.30;;;;;;4970703;28;20058;-58
2022/05/02 08:41:13;;;;;;;10.07;5.40;;;13.30;90.80;;;;;;4967889;28;20058;-52
2022/05/02 08:43:55;;;;;;;8.55;5.60;;;13.40;90.20;;;;;;4970675;28;20122;-51
2022/05/02 08:46:36;;;;;;;11.60;5.88;;;13.50;86.20;;;;;;4970364;28;20101;-52
2022/05/02 08:49:46;;;;;;;7.22;4.45;;;13.60;86.40;;;;;;4968158;28;20352;-47
2022/05/02 08:52:26;;;;;;;9.00;4.55;;;13.60;79.10;;;;;;4943499;28;20051;-51
2022/05/02 08:55:20;;;;;;;8.77;4.65;;;13.70;80.40;;;;;;4968737;28;20055;-52
2022/05/02 08:58:13;;;;;;;5.47;4.05;;;13.90;79.60;;;;;;4969663;28;20472;-47
2022/05/02 09:00:57;;;;;;;6.30;4.15;;;14.00;74.40;;;;;;4971085;28;20480;-49
2022/05/02 09:03:40;;;;;;;5.97;3.92;;;14.10;75.70;;;;;;4971665;28;20043;-52
2022/05/02 09:06:18;;;;;;;6.30;3.95;;;14.30;72.60;;;;;;4971120;28;20043;-52
2022/05/02 09:09:04;;;;;;;8.18;4.07;;;14.30;69.10;;;;;;4972261;28;20038;-51
2022/05/02 09:11:46;;;;;;;6.38;4.03;;;14.40;66.60;;;;;;4969648;28;20049;-51
2022/05/02 09:14:27;;;;;;;6.80;4.35;;;14.50;69.60;;;;;;4964493;28;20054;-51
2022/05/02 09:17:19;;;;;;;9.82;4.35;;;14.60;65.90;;;;;;4972564;28;20053;-52
2022/05/02 09:20:13;;;;;;;8.00;4.38;;;14.60;66.00;;;;;;4971392;28;20053;-50
2022/05/02 09:23:11;;;;;;;4.57;3.13;;;14.80;65.90;;;;;;4971970;28;20039;-52
2022/05/02 09:26:05;;;;;;;6.25;4.22;;;15.00;64.60;;;;;;4954587;28;20117;-51
2022/05/02 09:28:53;;;;;;;6.43;3.25;;;15.20;63.30;;;;;;4972878;28;20049;-51
2022/05/02 09:31:37;;;;;;;6.13;3.05;;;15.30;61.60;;;;;;4952517;28;20061;-49
2022/05/02 09:34:27;;;;;;;5.43;3.15;;;15.30;62.30;;;;;;4971560;28;20050;-51
2022/05/02 09:37:01;;;;;;;5.30;3.30;;;15.30;57.50;;;;;;4971309;28;20476;-53
2022/05/02 09:39:53;;;;;;;4.60;2.97;;;15.30;59.70;;;;;;4971873;28;20503;-52
2022/05/02 09:42:54;;;;;;;6.80;3.58;;;15.40;57.60;;;;;;4971271;28;20129;-50
2022/05/02 09:51:25;;;;;;;4.82;2.83;;;15.60;57.70;;;;;;4972002;28;20121;-51
2022/05/02 09:57:21;;;;;;;6.65;3.60;;;15.60;55.30;;;;;;4941386;28;20193;-52
2022/05/02 10:01:06;;;;;;;4.90;3.22;;;15.70;55.90;;;;;;4969427;28;20689;-48
2022/05/02 10:02:45;;;;;;;7.43;3.35;;;15.80;56.20;;;;;;4966761;28;20169;-52
2022/05/02 10:05:21;;;;;;;4.78;2.88;;;16.00;55.00;;;;;;4950692;28;20046;-52
2022/05/02 10:08:08;;;;;;;6.18;3.35;;;16.10;54.10;;;;;;4971599;28;20068;-52
2022/05/02 10:11:02;;;;;;;5.97;3.60;;;16.30;52.60;;;;;;4953858;28;20112;-49
2022/05/02 10:13:54;;;;;;;4.57;3.03;;;16.50;51.90;;;;;;4964059;28;20129;-49
2022/05/02 10:16:50;;;;;;;4.25;2.97;;;16.60;51.80;;;;;;4961728;28;20125;-48
2022/05/02 10:19:22;;;;;;;5.18;3.00;;;16.80;52.30;;;;;;4953528;28;20375;-53
2022/05/02 10:22:09;;;;;;;5.53;2.88;;;16.90;52.50;;;;;;4963453;28;20510;-52
2022/05/02 10:25:00;;;;;;;6.00;3.20;;;17.10;51.00;;;;;;4966333;28;20047;-46
2022/05/02 10:27:37;;;;;;;4.57;2.88;;;17.10;50.40;;;;;;4950122;28;20484;-50
2022/05/02 10:30:08;;;;;;;5.05;2.60;;;17.10;48.70;;;;;;4947476;28;20951;-51
2022/05/02 10:32:56;;;;;;;3.08;2.50;;;17.10;49.40;;;;;;4964456;28;20543;-51
2022/05/02 10:35:25;;;;;;;4.25;2.80;;;17.10;48.40;;;;;;4966535;28;20073;-52
2022/05/02 10:37:57;;;;;;;5.03;2.70;;;17.00;49.30;;;;;;4968854;28;20039;-51
2022/05/02 10:40:40;;;;;;;4.00;2.42;;;17.00;48.70;;;;;;4968107;28;20039;-46
2022/05/02 10:43:11;;;;;;;4.30;2.75;;;17.00;49.30;;;;;;4964506;28;21721;-46
2022/05/02 10:45:40;;;;;;;5.65;2.30;;;17.10;47.60;;;;;;4964198;28;20115;-50
2022/05/02 10:48:44;;;;;;;4.93;2.70;;;17.20;47.90;;;;;;4964988;28;20494;-51
2022/05/02 10:51:14;;;;;;;4.85;3.17;;;17.40;47.30;;;;;;4964771;28;20604;-52
2022/05/02 10:53:54;;;;;;;8.18;4.68;;;17.50;47.90;;;;;;4969785;28;20050;-50
2022/05/02 10:56:32;;;;;;;5.15;3.50;;;17.60;47.50;;;;;;4966240;28;20062;-52
2022/05/02 10:59:02;;;;;;;5.25;3.47;;;17.50;47.30;;;;;;4965572;28;20047;-49
2022/05/02 11:02:05;;;;;;;3.85;2.50;;;17.60;47.50;;;;;;4967656;28;20100;-49
2022/05/02 11:05:02;;;;;;;15.27;3.95;;;17.70;46.40;;;;;;4967438;28;20109;-49
2022/05/02 11:07:35;;;;;;;5.20;3.17;;;17.80;48.40;;;;;;4968121;28;20039;-52
2022/05/02 11:10:09;;;;;;;4.38;2.85;;;18.00;47.00;;;;;;4948514;28;20042;-52
2022/05/02 11:13:09;;;;;;;5.60;2.72;;;18.00;45.80;;;;;;4968116;28;20054;-51
2022/05/02 11:15:58;;;;;;;4.72;2.80;;;18.00;45.60;;;;;;4909317;28;20130;-52
2022/05/02 11:21:41;;;;;;;4.25;2.30;;;18.20;44.30;;;;;;4963733;28;20464;-48
2022/05/02 11:24:28;;;;;;;5.18;2.60;;;18.20;45.60;;;;;;4964936;28;20049;-51
2022/05/02 11:27:18;;;;;;;5.80;2.35;;;18.30;43.30;;;;;;4965726;28;20129;-51
2022/05/02 11:30:00;;;;;;;6.00;2.78;;;18.30;43.40;;;;;;4966912;28;20148;-51
2022/05/02 11:32:44;;;;;;;4.68;3.13;;;18.30;43.00;;;;;;4967054;28;20074;-53
2022/05/02 11:35:22;;;;;;;4.72;2.67;;;18.30;43.20;;;;;;4950075;28;20047;-53
2022/05/02 11:38:05;;;;;;;4.95;2.90;;;18.40;43.60;;;;;;4950558;28;20054;-50
2022/05/02 11:40:35;;;;;;;5.57;3.30;;;18.50;43.70;;;;;;4967397;28;20137;-52
2022/05/02 11:43:03;;;;;;;4.80;3.08;;;18.60;43.90;;;;;;4969141;28;20054;-52
2022/05/02 11:45:43;;;;;;;5.35;3.83;;;18.60;44.00;;;;;;4968128;28;20075;-49
2022/05/02 11:48:21;;;;;;;6.13;3.30;;;18.70;44.00;;;;;;4947133;28;20038;-52
2022/05/02 11:50:48;;;;;;;5.78;3.47;;;18.70;44.50;;;;;;4966419;28;20030;-52
2022/05/02 11:53:16;;;;;;;5.35;3.50;;;18.80;45.10;;;;;;4970355;28;20112;-49
2022/05/02 11:55:43;;;;;;;6.30;4.00;;;18.90;45.50;;;;;;4960745;28;20038;-49
2022/05/02 11:58:14;;;;;;;5.28;3.53;;;19.00;45.30;;;;;;4965649;28;20198;-46
2022/05/02 12:00:43;;;;;;;6.10;3.30;;;19.00;44.40;;;;;;4960772;28;20046;-49
2022/05/02 12:03:22;;;;;;;6.28;4.47;;;19.10;45.20;;;;;;4945885;28;20138;-48
2022/05/02 12:05:54;;;;;;;11.32;4.95;;;19.00;44.00;;;;;;4961373;28;20512;-52
2022/05/02 12:08:37;;;;;;;6.25;4.45;;;18.90;45.00;;;;;;4965037;28;20043;-48
2022/05/02 12:11:11;;;;;;;6.80;4.15;;;18.90;44.90;;;;;;4957558;28;20048;-52
2022/05/02 12:13:40;;;;;;;5.93;4.38;;;18.90;45.60;;;;;;4961886;28;20543;-49
2022/05/02 12:16:17;;;;;;;5.85;4.10;;;18.90;45.20;;;;;;4965342;28;20157;-53
2022/05/02 12:18:42;;;;;;;6.18;3.95;;;18.90;44.90;;;;;;4963075;28;20105;-50
2022/05/02 12:21:17;;;;;;;8.23;4.05;;;18.90;44.70;;;;;;4967845;28;20507;-52
2022/05/02 12:23:43;;;;;;;6.70;3.85;;;19.00;44.80;;;;;;4949568;28;20055;-47
2022/05/02 12:26:18;;;;;;;6.70;4.30;;;19.20;44.70;;;;;;4970867;28;20047;-49
2022/05/02 12:28:47;;;;;;;5.30;4.00;;;19.40;43.70;;;;;;4964223;28;20039;-52
2022/05/02 12:31:16;;;;;;;8.07;4.57;;;19.50;43.90;;;;;;4964571;28;20467;-53
2022/05/02 12:33:46;;;;;;;6.47;3.95;;;19.70;43.60;;;;;;4965013;28;20047;-50
2022/05/02 12:36:20;;;;;;;9.32;4.65;;;19.80;43.80;;;;;;4969050;28;20045;-50
2022/05/02 12:39:09;;;;;;;7.85;4.47;;;20.00;43.20;;;;;;4967347;28;20181;-50
2022/05/02 12:41:58;;;;;;;6.72;4.43;;;20.00;43.00;;;;;;4967057;28;20070;-47
2022/05/02 12:44:30;;;;;;;6.60;4.25;;;20.00;43.20;;;;;;4948208;28;20042;-53
2022/05/02 12:47:04;;;;;;;6.97;4.00;;;20.10;43.40;;;;;;4961727;28;20047;-49
2022/05/02 12:49:41;;;;;;;6.68;3.70;;;20.30;43.10;;;;;;4964372;28;20043;-49
2022/05/02 12:52:07;;;;;;;6.88;3.30;;;20.40;43.10;;;;;;4967447;28;20571;-51
2022/05/02 12:54:33;;;;;;;6.50;4.00;;;20.50;43.40;;;;;;4965043;28;20053;-52
2022/05/02 13:02:40;;;;;;;5.40;3.25;;;20.60;42.20;;;;;;4965554;28;20057;-52
2022/05/02 13:05:13;;;;;;;4.90;3.40;;;20.40;42.60;;;;;;4962170;28;20567;-52
2022/05/02 13:07:44;;;;;;;6.00;3.72;;;20.40;42.80;;;;;;4969624;28;20043;-52
2022/05/02 13:10:22;;;;;;;6.65;3.67;;;20.50;42.70;;;;;;4946056;28;20035;-46
2022/05/02 13:13:08;;;;;;;5.80;3.92;;;20.70;42.60;;;;;;4968363;28;20418;-51
2022/05/02 13:15:39;;;;;;;5.57;3.85;;;21.10;40.80;;;;;;4965712;28;20050;-50
2022/05/02 13:18:15;;;;;;;5.57;3.60;;;21.50;41.00;;;;;;4964225;28;20585;-51
2022/05/02 13:20:57;;;;;;;6.57;3.70;;;21.80;39.70;;;;;;4959040;28;20421;-46
2022/05/02 13:23:42;;;;;;;8.40;3.95;;;21.70;39.00;;;;;;4966886;28;20046;-52
2022/05/02 13:26:38;;;;;;;6.95;3.92;;;21.60;39.30;;;;;;4964417;28;20582;-53
2022/05/02 13:29:22;;;;;;;6.45;3.95;;;21.50;39.80;;;;;;4948926;28;20039;-48
2022/05/02 13:32:02;;;;;;;9.50;4.25;;;21.60;40.40;;;;;;4968109;28;20054;-47
2022/05/02 13:34:31;;;;;;;11.00;3.88;;;21.50;38.70;;;;;;4947002;28;20501;-52
2022/05/02 13:37:24;;;;;;;6.53;3.72;;;21.30;40.10;;;;;;4949286;28;20073;-50
2022/05/02 13:39:56;;;;;;;5.40;3.60;;;21.10;39.10;;;;;;4966343;28;20053;-46
2022/05/02 13:42:57;;;;;;;5.22;3.35;;;21.20;40.90;;;;;;4967443;28;20057;-50
2022/05/02 13:45:58;;;;;;;6.03;3.50;;;21.80;39.80;;;;;;4945511;28;20124;-50
2022/05/02 13:48:32;;;;;;;8.73;3.70;;;21.90;38.90;;;;;;4926639;28;20066;-52
2022/05/02 13:51:18;;;;;;;6.35;3.67;;;21.90;39.00;;;;;;4970410;28;20077;-48
2022/05/02 13:54:03;;;;;;;5.75;3.58;;;22.30;38.60;;;;;;4965424;28;20528;-49
2022/05/02 13:56:43;;;;;;;6.82;3.97;;;23.20;36.00;;;;;;4964638;28;20104;-53
2022/05/02 13:59:53;;;;;;;5.03;3.60;;;24.00;36.20;;;;;;4965512;28;20065;-51
2022/05/02 14:03:18;;;;;;;5.88;3.70;;;24.80;33.70;;;;;;4952386;28;20059;-53
2022/05/02 14:08:29;;;;;;;5.68;3.47;;;26.00;32.50;;;;;;4886391;29;20268;-52
2022/05/02 14:10:58;;;;;;;4.78;3.40;;;26.30;31.90;;;;;;4943634;28;20077;-46
2022/05/02 14:13:26;;;;;;;4.43;3.10;;;26.30;31.40;;;;;;4965602;28;20043;-48